createdAt,value
2019-03-24T00:03:32.836Z,7.20
2019-03-24T00:06:15.208Z,7.20
2019-03-24T00:08:57.856Z,7.20
2019-03-24T00:11:40.823Z,7.20
2019-03-24T00:14:23.263Z,7.10
2019-03-24T00:17:05.674Z,7.10
2019-03-24T00:19:47.843Z,6.90
2019-03-24T00:22:29.584Z,6.80
2019-03-24T00:25:11.599Z,6.80
2019-03-24T00:27:53.737Z,6.80
2019-03-24T00:30:35.581Z,6.80
2019-03-24T00:33:17.493Z,6.80
2019-03-24T00:36:00.006Z,6.90
2019-03-24T00:38:41.937Z,6.90
2019-03-24T00:41:25.255Z,6.90
2019-03-24T00:44:07.816Z,6.90
2019-03-24T00:46:49.825Z,6.90
2019-03-24T00:49:32.211Z,6.90
2019-03-24T00:52:14.418Z,6.90
2019-03-24T00:54:56.419Z,6.90
2019-03-24T00:57:38.793Z,6.90
2019-03-24T01:00:21.187Z,6.80
2019-03-24T01:03:03.038Z,6.80
2019-03-24T01:05:45.142Z,6.80
2019-03-24T01:08:27.514Z,6.80
2019-03-24T01:11:10.049Z,6.80
2019-03-24T01:13:52.022Z,6.80
2019-03-24T01:16:34.394Z,6.80
2019-03-24T01:19:16.109Z,6.70
2019-03-24T01:21:58.003Z,6.70
2019-03-24T01:24:40.221Z,6.70
2019-03-24T01:27:22.748Z,6.70
2019-03-24T01:30:05.196Z,6.60
2019-03-24T01:32:47.504Z,6.50
2019-03-24T01:35:29.529Z,6.50
2019-03-24T01:38:11.795Z,6.50
2019-03-24T01:40:53.743Z,6.60
2019-03-24T01:43:36.184Z,6.50
2019-03-24T01:46:17.977Z,6.60
2019-03-24T01:49:00.261Z,6.50
2019-03-24T01:51:42.410Z,6.40
2019-03-24T01:54:24.163Z,6.40
2019-03-24T01:57:06.024Z,6.40
2019-03-24T01:59:48.086Z,6.30
2019-03-24T02:02:29.912Z,6.30
2019-03-24T02:05:12.018Z,6.40
2019-03-24T02:07:53.808Z,6.40
2019-03-24T02:10:35.669Z,6.40
2019-03-24T02:13:17.627Z,6.40
2019-03-24T02:16:09.081Z,6.30
2019-03-24T02:18:43.813Z,6.30
2019-03-24T02:21:26.005Z,6.30
2019-03-24T02:24:07.818Z,6.30
2019-03-24T02:26:49.741Z,6.30
2019-03-24T02:29:32.032Z,6.30
2019-03-24T02:32:13.904Z,6.30
2019-03-24T02:34:55.974Z,6.30
2019-03-24T02:37:38.317Z,6.30
2019-03-24T02:40:20.953Z,6.30
2019-03-24T02:43:03.282Z,6.20
2019-03-24T02:45:45.205Z,6.20
2019-03-24T02:48:27.645Z,6.20
2019-03-24T02:51:10.225Z,6.20
2019-03-24T02:53:52.223Z,6.20
2019-03-24T02:56:34.956Z,6.10
2019-03-24T02:59:17.449Z,6.10
2019-03-24T03:01:59.824Z,6.20
2019-03-24T03:04:42.037Z,6.10
2019-03-24T03:07:24.006Z,6.10
2019-03-24T03:10:05.786Z,6.10
2019-03-24T03:12:47.852Z,6.10
2019-03-24T03:15:30.154Z,6.00
2019-03-24T03:18:12.143Z,5.90
2019-03-24T03:20:54.091Z,5.90
2019-03-24T03:23:35.933Z,5.90
2019-03-24T03:26:18.526Z,5.90
2019-03-24T03:29:00.915Z,5.90
2019-03-24T03:31:43.034Z,5.90
2019-03-24T03:34:25.372Z,5.90
2019-03-24T03:37:07.451Z,5.90
2019-03-24T03:39:49.585Z,5.80
2019-03-24T03:42:31.586Z,5.80
2019-03-24T03:45:14.151Z,5.80
2019-03-24T03:47:55.942Z,5.70
2019-03-24T03:50:38.035Z,5.70
2019-03-24T03:53:20.282Z,5.70
2019-03-24T03:56:02.477Z,5.70
2019-03-24T03:58:44.393Z,5.70
2019-03-24T04:01:26.223Z,5.60
2019-03-24T04:04:08.330Z,5.60
2019-03-24T04:06:50.248Z,5.70
2019-03-24T04:09:32.452Z,5.70
2019-03-24T04:12:14.574Z,5.80
2019-03-24T04:14:57.176Z,5.70
2019-03-24T04:17:39.642Z,5.60
2019-03-24T04:20:21.421Z,5.70
2019-03-24T04:23:03.729Z,5.70
2019-03-24T04:25:46.098Z,5.60
2019-03-24T04:28:28.144Z,5.50
2019-03-24T04:31:09.973Z,5.40
2019-03-24T04:33:51.854Z,5.40
2019-03-24T04:36:34.477Z,5.40
2019-03-24T04:39:17.025Z,5.40
2019-03-24T04:41:59.125Z,5.30
2019-03-24T04:44:41.489Z,5.30
2019-03-24T04:47:23.368Z,5.50
2019-03-24T04:50:06.002Z,5.50
2019-03-24T04:52:48.209Z,5.50
2019-03-24T04:55:30.493Z,5.50
2019-03-24T04:58:12.794Z,5.50
2019-03-24T05:00:54.926Z,5.50
2019-03-24T05:03:36.681Z,5.60
2019-03-24T05:06:18.833Z,5.50
2019-03-24T05:09:00.698Z,5.50
2019-03-24T05:11:43.185Z,5.40
2019-03-24T05:14:25.321Z,5.40
2019-03-24T05:17:07.409Z,5.50
2019-03-24T05:19:49.618Z,5.50
2019-03-24T05:22:31.365Z,5.40
2019-03-24T05:25:13.856Z,5.30
2019-03-24T05:27:55.889Z,5.30
2019-03-24T05:30:38.535Z,5.40
2019-03-24T05:33:20.705Z,5.40
2019-03-24T05:36:02.566Z,5.40
2019-03-24T05:38:44.762Z,5.40
2019-03-24T05:41:26.645Z,5.30
2019-03-24T05:44:08.617Z,5.20
2019-03-24T05:46:51.169Z,5.20
2019-03-24T05:49:33.306Z,5.20
2019-03-24T05:52:15.576Z,5.40
2019-03-24T05:54:57.990Z,5.30
2019-03-24T05:57:40.033Z,5.40
2019-03-24T06:00:21.861Z,5.40
2019-03-24T06:03:04.451Z,5.50
2019-03-24T06:05:47.085Z,5.50
2019-03-24T06:08:28.950Z,5.50
2019-03-24T06:11:11.253Z,5.60
2019-03-24T06:13:53.181Z,5.70
2019-03-24T06:16:37.902Z,5.70
2019-03-24T06:19:20.045Z,5.70
2019-03-24T06:22:02.191Z,5.70
2019-03-24T06:24:43.974Z,5.80
2019-03-24T06:27:25.825Z,5.90
2019-03-24T06:30:08.285Z,5.90
2019-03-24T06:32:50.309Z,6.00
2019-03-24T06:35:32.469Z,6.00
2019-03-24T06:38:14.301Z,6.10
2019-03-24T06:40:56.681Z,6.10
2019-03-24T06:43:39.445Z,6.10
2019-03-24T06:46:21.441Z,6.10
2019-03-24T06:49:03.694Z,6.00
2019-03-24T06:51:45.769Z,6.00
2019-03-24T06:54:27.629Z,6.00
2019-03-24T06:57:08.615Z,6.10
2019-03-24T07:03:14.917Z,6.20
2019-03-24T07:06:24.204Z,6.20
2019-03-24T07:12:32.977Z,6.30
2019-03-24T07:18:40.109Z,6.30
2019-03-24T07:21:11.478Z,6.40
2019-03-24T07:23:44.218Z,6.40
2019-03-24T07:26:15.625Z,6.40
2019-03-24T07:28:47.384Z,6.50
2019-03-24T07:31:18.797Z,6.50
2019-03-24T07:33:50.122Z,6.50
2019-03-24T07:36:21.367Z,6.60
2019-03-24T07:38:52.517Z,6.60
2019-03-24T07:41:24.165Z,6.60
2019-03-24T07:43:55.672Z,6.70
2019-03-24T07:46:27.941Z,6.70
2019-03-24T07:48:59.485Z,6.70
2019-03-24T07:51:32.656Z,6.80
2019-03-24T07:54:04.116Z,6.80
2019-03-24T07:56:35.585Z,6.80
2019-03-24T07:59:06.933Z,6.90
2019-03-24T08:01:38.465Z,6.90
2019-03-24T08:04:09.982Z,7.00
2019-03-24T08:06:41.257Z,7.00
2019-03-24T08:09:13.765Z,7.00
2019-03-24T08:11:45.181Z,7.10
2019-03-24T08:14:16.648Z,7.10
2019-03-24T08:16:48.037Z,7.20
2019-03-24T08:19:19.349Z,7.20
2019-03-24T08:21:50.771Z,7.20
2019-03-24T08:24:22.277Z,7.30
2019-03-24T08:26:53.915Z,7.30
2019-03-24T08:29:25.302Z,7.40
2019-03-24T08:31:56.852Z,7.40
2019-03-24T08:34:28.228Z,7.50
2019-03-24T08:36:59.571Z,7.50
2019-03-24T08:39:31.049Z,7.50
2019-03-24T08:42:02.589Z,7.60
2019-03-24T08:44:34.017Z,7.60
2019-03-24T08:47:05.436Z,7.70
2019-03-24T08:49:36.900Z,7.70
2019-03-24T08:52:08.309Z,7.70
2019-03-24T08:54:39.629Z,7.80
2019-03-24T08:57:10.776Z,7.80
2019-03-24T08:59:41.912Z,7.80
2019-03-24T09:02:13.125Z,7.80
2019-03-24T09:04:44.309Z,7.90
2019-03-24T09:07:15.632Z,7.90
2019-03-24T09:09:47.108Z,7.90
2019-03-24T09:12:18.574Z,8.00
2019-03-24T09:14:50.077Z,8.00
2019-03-24T09:17:21.393Z,8.10
2019-03-24T09:19:52.753Z,8.10
2019-03-24T09:22:24.236Z,8.10
2019-03-24T09:24:55.797Z,8.10
2019-03-24T09:27:27.234Z,8.20
2019-03-24T09:29:58.639Z,8.20
2019-03-24T09:32:30.217Z,8.20
2019-03-24T09:35:01.811Z,8.20
2019-03-24T09:37:33.343Z,8.30
2019-03-24T09:40:06.298Z,8.30
2019-03-24T09:42:38.038Z,8.30
2019-03-24T09:45:09.716Z,8.40
2019-03-24T09:47:41.413Z,8.40
2019-03-24T09:50:12.805Z,8.40
2019-03-24T09:52:44.198Z,8.50
2019-03-24T09:55:16.425Z,8.50
2019-03-24T09:57:49.477Z,8.60
2019-03-24T10:00:21.037Z,8.60
2019-03-24T10:02:53.225Z,8.60
2019-03-24T10:05:24.841Z,8.60
2019-03-24T10:07:56.194Z,8.70
2019-03-24T10:10:27.701Z,8.70
2019-03-24T10:12:59.406Z,8.70
2019-03-24T10:15:30.764Z,8.80
2019-03-24T10:18:03.990Z,8.80
2019-03-24T10:20:36.175Z,8.80
2019-03-24T10:23:09.000Z,8.90
2019-03-24T10:25:40.937Z,8.90
2019-03-24T10:28:12.589Z,8.90
2019-03-24T10:30:44.488Z,8.90
2019-03-24T10:33:16.004Z,9.00
2019-03-24T10:35:47.656Z,9.00
2019-03-24T10:38:19.314Z,9.00
2019-03-24T10:40:51.541Z,9.00
2019-03-24T10:43:23.264Z,9.00
2019-03-24T10:45:54.685Z,9.00
2019-03-24T10:48:33.626Z,9.00
2019-03-24T10:51:01.204Z,9.00
2019-03-24T10:53:32.624Z,9.00
2019-03-24T10:56:03.992Z,9.00
2019-03-24T10:58:36.585Z,9.00
2019-03-24T11:01:27.684Z,9.00
2019-03-24T11:03:59.408Z,9.00
2019-03-24T11:06:30.532Z,9.00
2019-03-24T11:09:01.721Z,9.00
2019-03-24T11:11:33.104Z,9.10
2019-03-24T11:14:04.572Z,9.10
2019-03-24T11:16:35.961Z,9.10
2019-03-24T11:19:07.464Z,9.10
2019-03-24T11:21:57.412Z,9.10
2019-03-24T11:24:30.335Z,9.10
2019-03-24T11:27:01.716Z,9.10
2019-03-24T11:29:34.545Z,9.10
2019-03-24T11:32:05.773Z,9.10
2019-03-24T11:34:38.427Z,9.10
2019-03-24T11:37:10.341Z,9.10
2019-03-24T11:39:42.267Z,9.10
2019-03-24T11:42:14.409Z,9.10
2019-03-24T11:44:47.313Z,9.10
2019-03-24T11:47:26.513Z,9.20
2019-03-24T11:49:53.318Z,9.20
2019-03-24T11:52:31.054Z,9.20
2019-03-24T11:55:02.781Z,9.20
2019-03-24T11:57:36.161Z,9.20
2019-03-24T12:00:08.695Z,9.20
2019-03-24T12:02:42.174Z,9.20
2019-03-24T12:05:14.017Z,9.20
2019-03-24T12:07:46.175Z,9.30
2019-03-24T12:10:17.649Z,9.30
2019-03-24T12:12:49.195Z,9.30
2019-03-24T12:15:21.466Z,9.30
2019-03-24T12:17:53.363Z,9.30
2019-03-24T12:20:25.633Z,9.30
2019-03-24T12:22:56.833Z,9.30
2019-03-24T12:25:29.049Z,9.40
2019-03-24T12:28:00.731Z,9.40
2019-03-24T12:30:32.219Z,9.40
2019-03-24T12:33:03.810Z,9.40
2019-03-24T12:35:35.623Z,9.40
2019-03-24T12:38:08.257Z,9.40
2019-03-24T12:40:41.027Z,9.40
2019-03-24T12:43:19.320Z,9.50
2019-03-24T12:45:45.935Z,9.40
2019-03-24T12:48:19.499Z,9.50
2019-03-24T12:50:51.022Z,9.50
2019-03-24T12:53:23.054Z,9.50
2019-03-24T12:55:54.547Z,9.50
2019-03-24T12:58:25.635Z,9.50
2019-03-24T13:00:57.384Z,9.50
2019-03-24T13:03:28.863Z,9.50
2019-03-24T13:06:00.963Z,9.60
2019-03-24T13:08:32.237Z,9.50
2019-03-24T13:11:03.451Z,9.50
2019-03-24T13:13:36.647Z,9.50
2019-03-24T13:16:08.234Z,9.50
2019-03-24T13:18:40.751Z,9.50
2019-03-24T13:21:13.574Z,9.60
2019-03-24T13:23:44.667Z,9.60
2019-03-24T13:26:17.250Z,9.60
2019-03-24T13:28:48.400Z,9.70
2019-03-24T13:31:20.141Z,9.70
2019-03-24T13:33:52.390Z,9.70
2019-03-24T13:36:23.604Z,9.80
2019-03-24T13:38:55.320Z,9.80
2019-03-24T13:41:27.109Z,9.90
2019-03-24T13:43:58.819Z,9.90
2019-03-24T13:46:30.094Z,9.90
2019-03-24T13:49:01.880Z,9.90
2019-03-24T13:51:33.750Z,9.90
2019-03-24T13:54:06.279Z,10.00
2019-03-24T13:56:37.884Z,10.10
2019-03-24T13:59:09.436Z,10.10
2019-03-24T14:01:40.923Z,10.10
2019-03-24T14:04:13.063Z,10.10
2019-03-24T14:06:44.219Z,10.20
2019-03-24T14:09:15.922Z,10.40
2019-03-24T14:11:48.145Z,10.50
2019-03-24T14:14:20.415Z,10.70
2019-03-24T14:16:52.723Z,10.80
2019-03-24T14:19:24.945Z,10.90
2019-03-24T14:21:56.203Z,11.00
2019-03-24T14:24:27.367Z,11.00
2019-03-24T14:26:58.896Z,10.80
2019-03-24T14:29:30.029Z,10.70
2019-03-24T14:32:01.323Z,10.70
2019-03-24T14:34:33.018Z,10.70
2019-03-24T14:37:04.683Z,10.60
2019-03-24T14:39:36.040Z,10.60
2019-03-24T14:42:08.153Z,10.60
2019-03-24T14:44:41.044Z,10.50
2019-03-24T14:47:12.328Z,10.40
2019-03-24T14:49:44.314Z,10.40
2019-03-24T14:52:15.591Z,10.50
2019-03-24T14:54:46.935Z,10.40
2019-03-24T14:57:18.868Z,10.40
2019-03-24T14:59:50.199Z,10.50
2019-03-24T15:02:21.839Z,10.50
2019-03-24T15:04:53.084Z,10.60
2019-03-24T15:07:24.651Z,10.50
2019-03-24T15:09:56.814Z,10.50
2019-03-24T15:12:28.256Z,10.40
2019-03-24T15:14:59.508Z,10.40
2019-03-24T15:17:31.345Z,10.30
2019-03-24T15:20:03.654Z,10.30
2019-03-24T15:22:35.374Z,10.50
2019-03-24T15:25:07.030Z,10.50
2019-03-24T15:27:38.350Z,10.50
2019-03-24T15:30:10.291Z,10.50
2019-03-24T15:32:41.908Z,10.50
2019-03-24T15:35:13.076Z,10.60
2019-03-24T15:37:47.480Z,10.80
2019-03-24T15:40:20.537Z,11.00
2019-03-24T15:42:51.859Z,11.10
2019-03-24T15:45:34.246Z,11.00
2019-03-24T15:48:05.333Z,11.00
2019-03-24T15:50:36.992Z,11.00
2019-03-24T15:53:08.892Z,11.00
2019-03-24T15:55:40.132Z,11.10
2019-03-24T15:58:11.494Z,11.30
2019-03-24T16:00:44.152Z,11.50
2019-03-24T16:03:17.782Z,11.50
2019-03-24T16:05:48.939Z,11.40
2019-03-24T16:08:20.070Z,11.40
2019-03-24T16:10:51.715Z,11.20
2019-03-24T16:13:22.823Z,11.00
2019-03-24T16:15:54.137Z,10.90
2019-03-24T16:18:25.483Z,10.80
2019-03-24T16:20:57.459Z,10.80
2019-03-24T16:23:30.301Z,10.90
2019-03-24T16:26:01.606Z,11.00
2019-03-24T16:28:33.616Z,11.00
2019-03-24T16:31:05.248Z,11.00
2019-03-24T16:33:36.509Z,11.00
2019-03-24T16:36:07.939Z,10.90
2019-03-24T16:38:48.566Z,10.80
2019-03-24T16:41:11.849Z,10.80
2019-03-24T16:43:43.234Z,10.70
2019-03-24T16:46:16.376Z,10.70
2019-03-24T16:48:47.483Z,10.60
2019-03-24T16:51:20.167Z,10.60
2019-03-24T16:53:54.009Z,10.70
2019-03-24T16:56:25.449Z,10.80
2019-03-24T16:58:56.569Z,10.80
2019-03-24T17:01:28.333Z,10.80
2019-03-24T17:03:59.570Z,10.80
2019-03-24T17:06:30.921Z,10.90
2019-03-24T17:09:02.495Z,10.90
2019-03-24T17:11:34.047Z,10.80
2019-03-24T17:14:06.385Z,10.80
2019-03-24T17:16:37.516Z,10.70
2019-03-24T17:19:08.804Z,10.70
2019-03-24T17:21:49.507Z,10.60
2019-03-24T17:24:14.022Z,10.60
2019-03-24T17:26:45.163Z,10.60
2019-03-24T17:29:16.378Z,10.50
2019-03-24T17:31:49.173Z,10.50
2019-03-24T17:34:22.152Z,10.40
2019-03-24T17:36:53.720Z,10.40
2019-03-24T17:39:25.863Z,10.40
2019-03-24T17:41:57.351Z,10.30
2019-03-24T17:44:28.674Z,10.30
2019-03-24T17:47:01.433Z,10.30
2019-03-24T17:49:33.156Z,10.30
2019-03-24T17:52:05.297Z,10.20
2019-03-24T17:54:37.086Z,10.20
2019-03-24T17:57:11.224Z,10.20
2019-03-24T17:59:43.303Z,10.20
2019-03-24T18:02:14.904Z,10.20
2019-03-24T18:04:47.310Z,10.20
2019-03-24T18:07:18.380Z,10.20
2019-03-24T18:16:52.481Z,10.10
2019-03-24T18:19:42.504Z,10.10
2019-03-24T18:22:24.303Z,10.10
2019-03-24T18:25:06.685Z,10.10
2019-03-24T18:27:49.022Z,10.10
2019-03-24T18:30:31.132Z,10.10
2019-03-24T18:33:13.144Z,10.10
2019-03-24T18:35:55.508Z,10.10
2019-03-24T18:38:37.694Z,10.10
2019-03-24T18:41:19.950Z,10.10
2019-03-24T18:44:02.612Z,10.10
2019-03-24T18:46:44.351Z,10.10
2019-03-24T18:49:26.076Z,10.10
2019-03-24T18:52:08.295Z,10.00
2019-03-24T18:54:50.802Z,10.00
2019-03-24T18:57:32.853Z,10.00
2019-03-24T19:00:15.003Z,10.00
2019-03-24T19:02:57.212Z,10.00
2019-03-24T19:05:39.713Z,9.90
2019-03-24T19:08:22.009Z,9.90
2019-03-24T19:11:03.853Z,9.90
2019-03-24T19:13:45.852Z,9.80
2019-03-24T19:16:28.147Z,9.80
2019-03-24T19:19:10.708Z,9.80
2019-03-24T19:21:52.763Z,9.70
2019-03-24T19:24:34.667Z,9.70
2019-03-24T19:27:16.444Z,9.80
2019-03-24T19:29:59.155Z,9.80
2019-03-24T19:32:41.354Z,9.80
2019-03-24T19:35:23.208Z,9.80
2019-03-24T19:38:05.434Z,9.80
2019-03-24T19:40:47.415Z,9.80
2019-03-24T19:43:29.522Z,9.80
2019-03-24T19:46:11.830Z,9.70
2019-03-24T19:48:54.053Z,9.70
2019-03-24T19:51:36.537Z,9.60
2019-03-24T19:54:18.645Z,9.50
2019-03-24T19:57:00.437Z,9.50
2019-03-24T19:59:44.492Z,9.40
2019-03-24T20:02:26.196Z,9.40
2019-03-24T20:05:08.322Z,9.30
2019-03-24T20:07:50.875Z,9.30
2019-03-24T20:10:32.739Z,9.20
2019-03-24T20:13:14.857Z,9.20
2019-03-24T20:15:57.191Z,9.20
2019-03-24T20:18:39.109Z,9.20
2019-03-24T20:21:21.528Z,9.20
2019-03-24T20:24:03.714Z,9.10
2019-03-24T20:26:45.686Z,9.10
2019-03-24T20:29:28.064Z,9.10
2019-03-24T20:32:10.412Z,9.10
2019-03-24T20:34:52.676Z,9.00
2019-03-24T20:37:34.635Z,9.00
2019-03-24T20:40:17.023Z,8.90
2019-03-24T20:42:59.257Z,8.90
2019-03-24T20:45:41.125Z,8.90
2019-03-24T20:48:23.768Z,8.80
2019-03-24T20:51:06.131Z,8.80
2019-03-24T20:53:48.449Z,8.70
2019-03-24T20:56:30.820Z,8.70
2019-03-24T20:59:12.823Z,8.70
2019-03-24T21:01:55.055Z,8.60
2019-03-24T21:04:36.964Z,8.60
2019-03-24T21:07:18.993Z,8.60
2019-03-24T21:10:00.929Z,8.60
2019-03-24T21:12:43.083Z,8.50
2019-03-24T21:15:25.982Z,8.40
2019-03-24T21:18:07.845Z,8.40
2019-03-24T21:20:50.657Z,8.40
2019-03-24T21:23:32.643Z,8.40
2019-03-24T21:26:14.756Z,8.40
2019-03-24T21:28:56.743Z,8.30
2019-03-24T21:31:39.007Z,8.30
2019-03-24T21:34:21.604Z,8.30
2019-03-24T21:37:03.283Z,8.30
2019-03-24T21:39:45.744Z,8.20
2019-03-24T21:42:27.688Z,8.20
2019-03-24T21:45:09.759Z,8.10
2019-03-24T21:47:51.608Z,8.10
2019-03-24T21:50:33.697Z,8.00
2019-03-24T21:53:15.818Z,8.00
2019-03-24T21:55:58.290Z,7.90
2019-03-24T21:58:40.307Z,7.90
2019-03-24T22:01:22.330Z,7.90
2019-03-24T22:04:04.585Z,7.90
2019-03-24T22:06:46.861Z,7.90
2019-03-24T22:09:29.071Z,7.90
2019-03-24T22:12:11.541Z,7.90
2019-03-24T22:14:53.992Z,7.90
2019-03-24T22:17:36.057Z,7.90
2019-03-24T22:20:18.014Z,7.90
2019-03-24T22:23:00.139Z,7.90
2019-03-24T22:25:42.172Z,7.90
2019-03-24T22:28:24.113Z,7.90
2019-03-24T22:31:06.641Z,7.90
2019-03-24T22:33:47.605Z,7.80
2019-03-24T22:49:36.499Z,7.90
2019-03-24T23:05:52.058Z,8.10
2019-03-24T23:08:53.215Z,8.10
2019-03-24T23:11:34.924Z,8.20
2019-03-24T23:14:15.846Z,8.20
2019-03-24T23:17:05.735Z,8.20
2019-03-24T23:23:50.576Z,8.20
2019-03-24T23:26:59.902Z,8.20
2019-03-24T23:43:23.085Z,8.20
2019-03-24T23:46:32.332Z,8.20
2019-03-24T23:49:41.731Z,8.20
2019-03-24T23:55:58.566Z,8.20
2019-03-24T23:58:41.435Z,8.20
